Eckerman, Michigan
Current Conditions -  °F | °C
As of 12:34 PM on Friday 24 Oct 2014 (Local Time) from KERY Reporting Station
Overcast Overcast  
Wind Chill: 44°   Ceiling: 500
Heat Index: 48°   Visibility: 7mi
Dew Point: 47°   Wind: 10mph
Humidity: 95%   Direction: 210°SSW
Pressure: 29.95"   Gusts: 18mph
Location:  46.37°N, 85.04°W
Report Text: KERY 241634Z AUTO 21009G16KT 7SM OVC005 09/08 A2995 RMK AO2 T00910084
Loading
Personal Weather Stations






























Interactive Weather Map
Tropical Storm Tracking
New forecast layout! Learn more

10-Day Weather Forecast

Advertisements
Track Severe Weather on mobile